createdAt,value
2018-10-18T00:41:48.276Z,97.25
2018-10-18T00:42:49.074Z,97.05
2018-10-18T00:43:49.072Z,97.20
2018-10-18T00:44:49.053Z,97.40
2018-10-18T00:45:49.086Z,97.30
2018-10-18T00:46:49.071Z,97.09
2018-10-18T00:47:49.015Z,97.71
2018-10-18T00:48:49.017Z,98.32
2018-10-18T00:49:49.044Z,98.11
2018-10-18T00:50:49.137Z,97.81
2018-10-18T00:51:48.997Z,98.02
2018-10-18T00:52:48.999Z,97.91
2018-10-18T00:53:48.989Z,97.86
2018-10-18T00:54:48.999Z,97.71
2018-10-18T00:55:48.932Z,98.06
2018-10-18T00:56:49.174Z,97.71
2018-10-18T00:57:49.122Z,98.36
2018-10-18T00:58:49.096Z,98.47
2018-10-18T00:59:49.039Z,98.88
2018-10-18T01:00:49.090Z,98.68
2018-10-18T01:01:49.123Z,98.27
2018-10-18T01:02:49.100Z,98.77
2018-10-18T01:03:49.142Z,98.57
2018-10-18T01:04:49.095Z,98.88
2018-10-18T01:05:49.074Z,98.88
2018-10-18T01:06:49.022Z,98.88
2018-10-18T01:07:48.816Z,99.18
2018-10-18T01:08:48.825Z,99.18
2018-10-18T01:09:48.811Z,98.77
2018-10-18T01:10:48.774Z,98.47
2018-10-18T01:11:48.779Z,98.77
2018-10-18T01:12:48.770Z,98.47
2018-10-18T01:13:48.756Z,98.47
2018-10-18T01:14:48.744Z,98.41
2018-10-18T01:15:48.837Z,98.72
2018-10-18T01:16:48.727Z,98.68
2018-10-18T01:17:48.742Z,98.52
2018-10-18T01:18:48.691Z,98.61
2018-10-18T01:19:48.692Z,99.13
2018-10-18T01:20:48.680Z,99.02
2018-10-18T01:21:48.678Z,99.13
2018-10-18T01:22:48.635Z,99.13
2018-10-18T01:23:48.623Z,99.23
2018-10-18T01:24:48.677Z,98.61
2018-10-18T01:25:48.701Z,98.72
2018-10-18T01:26:48.615Z,98.52
2018-10-18T01:27:48.575Z,99.23
2018-10-18T01:28:48.607Z,99.02
2018-10-18T01:29:48.581Z,99.02
2018-10-18T01:30:48.568Z,98.98
2018-10-18T01:31:48.562Z,99.02
2018-10-18T01:32:48.554Z,99.13
2018-10-18T01:33:48.515Z,99.18
2018-10-18T01:34:48.566Z,99.18
2018-10-18T01:35:48.567Z,98.98
2018-10-18T01:36:48.504Z,99.18
2018-10-18T01:37:48.519Z,99.08
2018-10-18T01:38:48.524Z,98.57
2018-10-18T01:39:48.493Z,98.88
2018-10-18T01:40:48.434Z,98.88
2018-10-18T01:41:48.462Z,98.47
2018-10-18T01:42:48.481Z,98.72
2018-10-18T01:43:48.421Z,98.52
2018-10-18T01:44:48.468Z,98.52
2018-10-18T01:45:48.450Z,98.72
2018-10-18T01:46:48.397Z,99.23
2018-10-18T01:47:48.444Z,98.82
2018-10-18T01:48:48.467Z,98.72
2018-10-18T01:49:48.556Z,98.82
2018-10-18T01:50:48.516Z,99.02
2018-10-18T01:51:48.611Z,98.77
2018-10-18T01:52:48.587Z,98.61
2018-10-18T01:53:48.411Z,99.23
2018-10-18T01:54:48.492Z,98.93
2018-10-18T01:55:48.468Z,98.52
2018-10-18T01:56:48.454Z,98.86
2018-10-18T01:57:48.385Z,98.56
2018-10-18T01:58:48.250Z,98.52
2018-10-18T01:59:48.256Z,98.72
2018-10-18T02:00:48.319Z,98.77
2018-10-18T02:01:48.233Z,98.56
2018-10-18T02:02:48.242Z,99.07
2018-10-18T02:03:48.232Z,99.18
2018-10-18T02:04:48.188Z,98.77
2018-10-18T02:05:48.166Z,98.97
2018-10-18T02:06:48.204Z,99.07
2018-10-18T02:07:48.234Z,99.02
2018-10-18T02:08:48.164Z,99.18
2018-10-18T02:09:48.169Z,99.27
2018-10-18T02:10:48.122Z,99.07
2018-10-18T02:11:48.162Z,98.72
2018-10-18T02:12:48.105Z,99.95
2018-10-18T02:13:48.136Z,99.18
2018-10-18T02:14:48.086Z,99.07
2018-10-18T02:15:48.131Z,99.18
2018-10-18T02:16:48.069Z,99.89
2018-10-18T02:17:48.062Z,99.23
2018-10-18T02:18:48.067Z,99.02
2018-10-18T02:19:48.062Z,98.86
2018-10-18T02:20:48.002Z,98.77
2018-10-18T02:21:48.001Z,98.86
2018-10-18T02:22:48.027Z,99.18
2018-10-18T02:23:47.986Z,99.07
2018-10-18T02:24:47.963Z,99.27
2018-10-18T02:25:47.984Z,98.97
2018-10-18T02:26:47.987Z,98.77
2018-10-18T02:27:48.029Z,99.07
2018-10-18T02:28:47.945Z,99.07
2018-10-18T02:29:47.951Z,99.07
2018-10-18T02:30:47.908Z,98.97
2018-10-18T02:31:47.878Z,98.93
2018-10-18T02:32:47.894Z,99.18
2018-10-18T02:33:47.916Z,99.18
2018-10-18T02:34:47.904Z,98.77
2018-10-18T02:35:47.924Z,99.27
2018-10-18T02:36:47.822Z,99.07
2018-10-18T02:37:47.847Z,99.07
2018-10-18T02:38:47.852Z,98.86
2018-10-18T02:39:47.870Z,99.27
2018-10-18T02:40:47.816Z,99.18
2018-10-18T02:52:32.578Z,99.16
2018-10-18T02:53:33.532Z,98.81
2018-10-18T02:54:33.490Z,99.02
2018-10-18T02:55:33.476Z,99.73
2018-10-18T02:56:33.454Z,99.79
2018-10-18T02:57:33.463Z,99.99
2018-10-18T02:58:33.428Z,99.99
2018-10-18T02:59:33.452Z,99.99
2018-10-18T03:00:33.421Z,99.99
2018-10-18T03:01:33.406Z,99.48
2018-10-18T03:02:33.428Z,99.68
2018-10-18T03:03:33.374Z,99.79
2018-10-18T03:04:33.380Z,99.99
2018-10-18T03:05:33.390Z,99.89
2018-10-18T03:06:33.382Z,99.68
2018-10-18T03:07:33.360Z,99.99
2018-10-18T03:08:33.322Z,99.27
2018-10-18T03:09:33.347Z,99.18
2018-10-18T03:10:33.308Z,98.97
2018-10-18T03:11:33.287Z,99.07
2018-10-18T03:12:33.301Z,99.18
2018-10-18T03:13:33.266Z,99.18
2018-10-18T03:14:33.245Z,98.97
2018-10-18T03:15:33.251Z,98.56
2018-10-18T03:16:33.224Z,98.46
2018-10-18T03:17:33.241Z,98.36
2018-10-18T03:18:33.202Z,98.36
2018-10-18T03:19:33.225Z,98.36
2018-10-18T03:20:33.192Z,98.05
2018-10-18T03:21:33.169Z,98.36
2018-10-18T03:22:33.187Z,98.36
2018-10-18T03:23:33.149Z,98.36
2018-10-18T03:24:33.141Z,98.15
2018-10-18T03:25:33.152Z,98.46
2018-10-18T03:26:33.114Z,98.25
2018-10-18T03:27:33.130Z,98.66
2018-10-18T03:28:33.095Z,98.97
2018-10-18T03:29:33.091Z,98.25
2018-10-18T03:30:33.090Z,98.25
2018-10-18T03:31:33.076Z,98.31
2018-10-18T03:32:33.102Z,98.36
2018-10-18T03:33:33.053Z,98.31
2018-10-18T03:34:33.038Z,98.31
2018-10-18T03:35:33.023Z,98.00
2018-10-18T03:36:33.008Z,97.90
2018-10-18T03:37:33.016Z,98.11
2018-10-18T03:38:32.980Z,98.11
2018-10-18T03:39:32.983Z,98.16
2018-10-18T03:40:32.969Z,98.41
2018-10-18T03:41:33.068Z,98.52
2018-10-18T03:42:32.966Z,97.75
2018-10-18T03:43:32.956Z,97.65
2018-10-18T03:44:32.951Z,97.55
2018-10-18T03:45:32.902Z,97.65
2018-10-18T03:46:32.907Z,97.65
2018-10-18T03:47:32.882Z,97.55
2018-10-18T03:48:32.893Z,97.34
2018-10-18T03:49:32.879Z,97.34
2018-10-18T03:50:32.886Z,97.34
2018-10-18T03:51:32.845Z,97.65
2018-10-18T03:52:32.847Z,97.86
2018-10-18T03:53:32.846Z,97.14
2018-10-18T03:54:33.035Z,97.14
2018-10-18T03:55:32.831Z,97.09
2018-10-18T03:56:32.786Z,97.00
2018-10-18T03:57:32.773Z,97.00
2018-10-18T03:58:32.774Z,96.79
2018-10-18T03:59:32.831Z,97.00
2018-10-18T04:00:32.758Z,96.84
2018-10-18T04:01:32.734Z,96.38
2018-10-18T04:02:32.728Z,96.48
2018-10-18T04:03:32.710Z,96.48
2018-10-18T04:04:32.733Z,96.48
2018-10-18T04:05:32.702Z,96.59
2018-10-18T04:06:32.681Z,96.28
2018-10-18T04:07:32.667Z,96.28
2018-10-18T04:08:32.686Z,96.28
2018-10-18T04:09:32.654Z,96.18
2018-10-18T04:10:32.635Z,96.38
2018-10-18T04:11:32.640Z,96.38
2018-10-18T04:12:32.616Z,96.79
2018-10-18T04:13:32.609Z,96.79
2018-10-18T04:14:32.614Z,96.59
2018-10-18T04:15:32.596Z,96.59
2018-10-18T04:16:32.567Z,96.69
2018-10-18T04:17:32.562Z,97.00
2018-10-18T04:18:32.572Z,96.79
2018-10-18T04:19:32.552Z,96.48
2018-10-18T04:20:32.551Z,96.38
2018-10-18T04:21:32.517Z,96.38
2018-10-18T04:22:32.498Z,96.48
2018-10-18T04:23:32.486Z,96.18
2018-10-18T04:24:32.495Z,96.38
2018-10-18T04:25:32.523Z,96.38
2018-10-18T04:26:32.479Z,96.54
2018-10-18T04:27:32.455Z,96.44
2018-10-18T04:28:32.440Z,96.23
2018-10-18T04:29:32.450Z,96.34
2018-10-18T04:30:32.420Z,96.34
2018-10-18T04:31:32.437Z,96.34
2018-10-18T04:32:32.409Z,96.75
2018-10-18T04:33:32.378Z,96.23
2018-10-18T04:34:32.381Z,96.23
2018-10-18T04:35:32.355Z,96.18
2018-10-18T04:36:32.348Z,96.69
2018-10-18T04:37:32.427Z,96.69
2018-10-18T04:38:32.328Z,96.69
2018-10-18T04:39:32.343Z,96.23
2018-10-18T04:40:32.334Z,96.38
2018-10-18T04:41:32.314Z,96.34
2018-10-18T04:42:32.294Z,96.59
2018-10-18T04:43:32.290Z,96.34
2018-10-18T04:44:32.278Z,96.44
2018-10-18T04:45:32.258Z,96.34
2018-10-18T04:46:32.290Z,96.14
2018-10-18T04:47:32.266Z,96.14
2018-10-18T04:48:32.341Z,96.44
2018-10-18T04:49:32.235Z,96.48
2018-10-18T04:50:32.238Z,96.95
2018-10-18T04:51:32.202Z,96.84
2018-10-18T05:56:26.026Z,96.95
2018-10-18T05:57:26.966Z,96.80
2018-10-18T05:58:26.963Z,96.91
2018-10-18T05:59:26.947Z,96.70
2018-10-18T06:00:26.995Z,96.91
2018-10-18T06:01:26.970Z,96.95
2018-10-18T06:02:26.921Z,96.50
2018-10-18T06:03:26.919Z,96.70
2018-10-18T06:04:26.907Z,96.23
2018-10-18T06:05:26.912Z,96.19
2018-10-18T06:06:26.914Z,96.19
2018-10-18T06:07:26.918Z,96.30
2018-10-18T06:08:26.879Z,96.19
2018-10-18T06:09:26.892Z,96.30
2018-10-18T06:10:26.864Z,96.39
2018-10-18T06:11:26.849Z,96.15
2018-10-18T06:12:26.834Z,96.15
2018-10-18T06:13:26.829Z,96.04
2018-10-18T06:14:26.816Z,95.98
2018-10-18T06:15:26.825Z,95.94
2018-10-18T06:16:26.802Z,95.94
2018-10-18T06:17:26.838Z,95.84
2018-10-18T06:18:26.753Z,96.15
2018-10-18T06:19:26.745Z,95.94
2018-10-18T06:20:26.729Z,95.64
2018-10-18T06:21:26.729Z,95.64
2018-10-18T06:22:26.781Z,95.23
2018-10-18T06:23:26.837Z,94.92
2018-10-18T06:24:26.688Z,95.23
2018-10-18T06:25:26.704Z,95.43
2018-10-18T06:26:26.703Z,95.43
2018-10-18T06:27:26.693Z,95.33
2018-10-18T06:28:26.649Z,94.92
2018-10-18T06:29:26.660Z,95.23
2018-10-18T06:30:26.623Z,95.03
2018-10-18T06:31:26.624Z,95.23
2018-10-18T06:32:26.623Z,95.23
2018-10-18T06:33:26.585Z,95.33
2018-10-18T06:34:26.614Z,95.18
2018-10-18T06:35:26.561Z,94.88
2018-10-18T06:36:26.569Z,94.47
2018-10-18T06:37:26.718Z,94.37
2018-10-18T06:38:26.535Z,94.68
2018-10-18T06:39:26.527Z,94.07
2018-10-18T06:40:26.509Z,94.17
2018-10-18T06:41:26.521Z,94.17
2018-10-18T06:42:26.512Z,94.17
2018-10-18T06:43:26.499Z,93.86
2018-10-18T06:44:26.507Z,94.47
2018-10-18T06:45:26.467Z,94.37
2018-10-18T06:46:26.459Z,94.07
2018-10-18T06:47:26.889Z,94.27
2018-10-18T06:48:26.510Z,94.27
2018-10-18T06:49:26.507Z,94.27
2018-10-18T06:50:26.406Z,94.07
2018-10-18T06:51:26.415Z,94.27
2018-10-18T06:52:26.429Z,94.57
2018-10-18T06:53:27.254Z,94.57
2018-10-18T06:54:26.367Z,94.17
2018-10-18T06:55:26.346Z,94.02
2018-10-18T06:56:26.339Z,94.32
2018-10-18T06:57:26.328Z,94.23
2018-10-18T06:58:26.312Z,94.12
2018-10-18T06:59:26.331Z,94.23
2018-10-18T07:00:26.391Z,94.32
2018-10-18T07:01:26.346Z,93.62
2018-10-18T07:02:26.282Z,93.82
2018-10-18T07:03:26.256Z,93.71
2018-10-18T07:04:26.243Z,93.71
2018-10-18T07:05:26.243Z,93.51
2018-10-18T07:06:26.240Z,93.51
2018-10-18T07:07:26.270Z,93.31
2018-10-18T07:08:26.217Z,93.21
2018-10-18T07:09:26.209Z,93.47
2018-10-18T07:10:26.223Z,92.96
2018-10-18T07:11:26.181Z,93.21
2018-10-18T07:12:26.159Z,93.16
2018-10-18T07:13:26.144Z,93.37
2018-10-18T07:14:26.162Z,93.51
2018-10-18T07:15:26.159Z,93.47
2018-10-18T07:16:26.185Z,92.96
2018-10-18T07:17:26.165Z,92.96
2018-10-18T07:18:26.102Z,93.01
2018-10-18T07:19:26.089Z,93.37
2018-10-18T07:20:26.069Z,93.47
2018-10-18T07:21:26.069Z,92.76
2018-10-18T07:22:26.061Z,92.82
2018-10-18T07:23:26.054Z,92.30
2018-10-18T07:24:26.010Z,92.51
2018-10-18T07:25:26.048Z,92.71
2018-10-18T07:26:25.994Z,91.49
2018-10-18T07:27:26.014Z,91.49
2018-10-18T07:28:25.964Z,91.60
2018-10-18T07:29:25.983Z,91.49
2018-10-18T07:30:25.974Z,90.88
2018-10-18T07:31:25.971Z,90.99
2018-10-18T07:32:26.051Z,91.19
2018-10-18T07:33:25.934Z,91.09
2018-10-18T07:34:25.904Z,91.49
2018-10-18T07:35:25.892Z,91.39
2018-10-18T07:36:25.898Z,91.25
2018-10-18T07:37:25.937Z,91.45
2018-10-18T07:38:25.886Z,91.39
2018-10-18T07:39:25.849Z,91.19
2018-10-18T07:40:25.881Z,91.19
2018-10-18T07:41:25.893Z,91.14
2018-10-18T07:42:25.829Z,91.25
2018-10-18T07:43:25.880Z,91.05
2018-10-18T07:44:25.865Z,90.94
2018-10-18T07:45:25.856Z,91.09
2018-10-18T07:46:25.769Z,90.99
2018-10-18T07:47:25.784Z,91.05
2018-10-18T07:48:25.761Z,90.59
2018-10-18T07:49:25.746Z,91.05
2018-10-18T07:50:25.766Z,90.23
2018-10-18T07:51:25.750Z,90.13
2018-10-18T07:52:25.764Z,90.23
2018-10-18T07:53:25.757Z,89.83
2018-10-18T07:54:25.719Z,89.72
2018-10-18T07:55:25.712Z,89.72
2018-10-18T07:57:58.413Z,90.39
2018-10-18T07:58:59.377Z,90.03
2018-10-18T07:59:59.419Z,90.19
2018-10-18T08:00:59.374Z,89.17
2018-10-18T08:01:59.341Z,88.87
2018-10-18T08:02:59.371Z,88.56
2018-10-18T08:03:59.320Z,89.13
2018-10-18T08:04:59.300Z,88.82
2018-10-18T08:05:59.301Z,88.93
2018-10-18T08:06:59.295Z,88.82
2018-10-18T08:07:59.301Z,87.87
2018-10-18T08:08:59.255Z,87.77
2018-10-18T08:09:59.312Z,88.38
2018-10-18T08:10:59.232Z,87.37
2018-10-18T08:11:59.207Z,86.91
2018-10-18T08:12:59.274Z,86.45
2018-10-18T08:13:59.196Z,86.55
2018-10-18T08:14:59.173Z,86.31
2018-10-18T08:15:59.223Z,86.41
2018-10-18T08:16:59.206Z,85.80
2018-10-18T08:17:59.192Z,86.00
2018-10-18T08:18:59.238Z,85.60
2018-10-18T08:19:59.190Z,85.80
2018-10-18T08:20:59.169Z,85.80
2018-10-18T08:21:59.126Z,85.80
2018-10-18T08:22:59.111Z,85.30
2018-10-18T08:23:59.103Z,85.39
2018-10-18T08:24:59.133Z,85.74
2018-10-18T08:25:59.093Z,86.25
2018-10-18T08:26:59.069Z,85.39
2018-10-18T08:27:59.069Z,85.50
2018-10-18T08:28:59.081Z,85.19
2018-10-18T08:29:59.017Z,85.09
2018-10-18T08:30:59.024Z,85.09
2018-10-18T08:31:59.054Z,84.75
2018-10-18T08:32:59.012Z,84.69
2018-10-18T08:33:58.993Z,84.89
2018-10-18T08:34:59.051Z,84.64
2018-10-18T08:35:58.986Z,84.75
2018-10-18T08:36:59.035Z,84.24
2018-10-18T08:37:59.156Z,85.05
2018-10-18T08:38:59.071Z,84.20
2018-10-18T08:39:58.939Z,83.80
2018-10-18T08:40:58.941Z,84.00
2018-10-18T08:41:58.885Z,84.30
2018-10-18T08:42:58.891Z,83.69
2018-10-18T08:43:59.001Z,84.30
2018-10-18T08:44:58.857Z,83.69
2018-10-18T08:45:58.835Z,83.49
2018-10-18T08:46:58.848Z,82.78
2018-10-18T08:47:58.819Z,82.78
2018-10-18T08:48:58.855Z,82.44
2018-10-18T08:49:58.859Z,82.68
2018-10-18T08:50:58.814Z,82.17
2018-10-18T08:51:58.782Z,82.38
2018-10-18T08:52:58.780Z,82.24
2018-10-18T08:53:58.781Z,82.75
2018-10-18T08:54:58.796Z,82.30
2018-10-18T08:55:58.788Z,81.12
2018-10-18T08:56:58.733Z,81.69
2018-10-18T08:57:58.735Z,81.99
2018-10-18T08:58:58.777Z,81.69
2018-10-18T08:59:58.703Z,81.39
2018-10-18T09:00:58.696Z,80.98
2018-10-18T09:01:58.685Z,81.29
2018-10-18T09:02:58.662Z,80.07
2018-10-18T09:03:58.658Z,80.18
2018-10-18T09:04:58.644Z,79.83
2018-10-18T09:05:58.624Z,80.34
2018-10-18T09:06:58.682Z,80.24
2018-10-18T09:07:58.614Z,79.33
2018-10-18T09:08:58.642Z,79.13
2018-10-18T09:09:58.604Z,78.42
2018-10-18T09:10:58.575Z,78.82
2018-10-18T09:11:58.565Z,78.52
2018-10-18T09:12:58.651Z,78.52
2018-10-18T09:13:58.590Z,78.66
2018-10-18T09:14:58.547Z,78.35
2018-10-18T09:15:58.602Z,79.22
2018-10-18T09:16:58.567Z,79.43
2018-10-18T09:17:58.490Z,77.81
2018-10-18T09:18:58.543Z,77.71
2018-10-18T09:19:58.477Z,78.52
2018-10-18T09:20:58.453Z,78.25
2018-10-18T09:21:58.450Z,77.20
2018-10-18T09:22:58.435Z,78.05
2018-10-18T09:23:58.579Z,78.66
2018-10-18T09:24:58.444Z,78.45
2018-10-18T09:25:58.405Z,78.15
2018-10-18T09:26:58.394Z,78.35
2018-10-18T09:27:58.404Z,78.66
2018-10-18T09:28:58.378Z,79.26
2018-10-18T09:29:58.382Z,79.26
2018-10-18T09:30:58.363Z,78.66
2018-10-18T09:31:58.334Z,78.39
2018-10-18T09:32:58.340Z,78.75
2018-10-18T09:33:58.344Z,78.19
2018-10-18T09:34:58.323Z,78.59
2018-10-18T09:35:58.330Z,78.69
2018-10-18T09:36:58.299Z,78.69
2018-10-18T09:37:58.300Z,78.69
2018-10-18T09:38:58.255Z,77.78
2018-10-18T09:39:58.278Z,78.69
2018-10-18T09:40:58.244Z,78.49
2018-10-18T09:41:58.222Z,78.19
2018-10-18T09:42:58.307Z,78.59
2018-10-18T09:43:58.212Z,78.39
2018-10-18T09:44:58.300Z,78.69
2018-10-18T09:45:58.238Z,78.55
2018-10-18T09:46:58.191Z,78.15
2018-10-18T09:47:58.175Z,77.64
2018-10-18T09:48:58.167Z,77.75
2018-10-18T09:49:58.164Z,78.15
2018-10-18T09:50:58.179Z,77.14
2018-10-18T09:51:58.131Z,77.54
2018-10-18T09:52:58.184Z,76.93
2018-10-18T09:53:58.130Z,76.93
2018-10-18T09:54:58.115Z,76.73
2018-10-18T09:55:58.112Z,76.23
2018-10-18T09:56:58.082Z,75.58
2018-10-18T09:59:07.578Z,76.05
2018-10-18T10:00:11.137Z,75.45
2018-10-18T10:01:08.394Z,75.75
2018-10-18T10:02:08.258Z,75.10
2018-10-18T10:03:08.260Z,75.01
2018-10-18T10:04:08.236Z,74.50
2018-10-18T10:05:08.259Z,73.75
2018-10-18T10:06:08.219Z,74.33
2018-10-18T10:07:08.264Z,72.44
2018-10-18T10:08:08.199Z,73.79
2018-10-18T10:09:08.168Z,74.60
2018-10-18T10:10:08.188Z,74.40
2018-10-18T10:11:08.153Z,75.21
2018-10-18T10:12:08.149Z,74.40
2018-10-18T10:13:08.154Z,74.80
2018-10-18T10:14:08.164Z,74.77
2018-10-18T10:15:08.125Z,74.90
2018-10-18T10:16:08.106Z,75.31
2018-10-18T10:17:08.172Z,75.85
2018-10-18T10:18:08.135Z,75.75
2018-10-18T10:19:08.177Z,75.71
2018-10-18T10:20:08.078Z,75.31
2018-10-18T10:21:08.067Z,75.71
2018-10-18T10:22:08.041Z,75.21
2018-10-18T10:23:08.042Z,75.10
2018-10-18T10:24:08.006Z,75.95
2018-10-18T10:25:08.111Z,75.71
2018-10-18T10:26:07.986Z,76.05
2018-10-18T10:27:07.974Z,75.61
2018-10-18T10:28:07.953Z,75.81
2018-10-18T10:29:07.940Z,75.61
2018-10-18T10:30:08.007Z,75.27
2018-10-18T10:31:07.957Z,74.37
2018-10-18T10:32:07.921Z,74.16
2018-10-18T10:33:07.988Z,74.06
2018-10-18T10:34:07.892Z,73.75
2018-10-18T10:35:07.985Z,73.72
2018-10-18T10:36:07.880Z,73.11
2018-10-18T10:37:07.940Z,72.81
2018-10-18T10:38:07.845Z,72.48
2018-10-18T10:39:07.850Z,72.24
2018-10-18T10:40:07.916Z,72.44
2018-10-18T10:41:07.949Z,70.79
2018-10-18T10:42:07.857Z,69.89
2018-10-18T10:43:07.830Z,70.29
2018-10-18T10:44:07.804Z,70.12
2018-10-18T10:45:07.850Z,70.83
2018-10-18T10:46:07.877Z,70.83
2018-10-18T10:47:07.765Z,70.69
2018-10-18T10:48:07.857Z,70.09
2018-10-18T10:49:08.583Z,70.29
2018-10-18T10:50:07.784Z,70.29
2018-10-18T10:51:07.843Z,69.65
2018-10-18T10:52:07.808Z,69.89
2018-10-18T10:53:07.689Z,69.85
2018-10-18T10:54:07.819Z,69.79
2018-10-18T10:55:07.698Z,69.99
2018-10-18T10:56:07.683Z,70.09
2018-10-18T10:57:07.712Z,68.68
2018-10-18T10:58:07.945Z,68.98
2018-10-18T10:59:07.684Z,70.09
2018-10-18T11:00:08.604Z,69.99
2018-10-18T11:01:07.607Z,68.24
2018-10-18T11:02:07.710Z,69.45
2018-10-18T11:03:07.642Z,69.59
2018-10-18T11:04:07.577Z,70.19
2018-10-18T11:05:07.564Z,70.29
2018-10-18T11:06:07.709Z,70.29
2018-10-18T11:07:07.528Z,70.09
2018-10-18T11:08:07.561Z,69.99
2018-10-18T11:09:07.651Z,69.79
2018-10-18T11:10:07.498Z,70.62
2018-10-18T11:11:07.501Z,70.22
2018-10-18T11:12:07.627Z,70.02
2018-10-18T11:13:07.468Z,70.29
2018-10-18T11:14:07.562Z,70.29
2018-10-18T11:15:07.582Z,68.77
2018-10-18T11:16:07.459Z,68.27
2018-10-18T11:17:07.495Z,68.48
2018-10-18T11:18:07.437Z,68.30
2018-10-18T11:19:07.409Z,68.10
2018-10-18T11:20:07.468Z,68.51
2018-10-18T11:21:07.521Z,68.64
2018-10-18T11:22:07.368Z,69.21
2018-10-18T11:23:07.374Z,69.72
2018-10-18T11:24:07.464Z,69.21
2018-10-18T11:25:07.345Z,68.51
2018-10-18T11:26:07.435Z,68.48
2018-10-18T11:27:07.359Z,68.07
2018-10-18T11:28:07.327Z,68.41
2018-10-18T11:29:07.286Z,68.30
2018-10-18T11:30:07.371Z,68.91
2018-10-18T11:31:07.323Z,68.41
2018-10-18T11:32:07.313Z,69.01
2018-10-18T11:33:07.258Z,68.41
2018-10-18T11:34:07.260Z,68.91
2018-10-18T11:35:07.226Z,68.41
2018-10-18T11:36:07.318Z,68.30
2018-10-18T11:37:07.196Z,69.21
2018-10-18T11:38:07.229Z,68.81
2018-10-18T11:39:07.160Z,68.07
2018-10-18T11:40:07.192Z,68.57
2018-10-18T11:41:07.174Z,68.48
2018-10-18T11:42:07.152Z,67.97
2018-10-18T11:43:07.133Z,67.97
2018-10-18T11:44:07.235Z,68.61
2018-10-18T11:45:07.159Z,68.27
2018-10-18T11:46:07.103Z,68.04
2018-10-18T11:47:07.093Z,66.50
2018-10-18T11:48:07.161Z,66.19
2018-10-18T11:49:07.071Z,65.89
2018-10-18T11:50:07.078Z,66.39
2018-10-18T11:51:07.103Z,65.66
2018-10-18T11:52:07.168Z,65.12
2018-10-18T11:53:07.027Z,64.82
2018-10-18T11:54:07.060Z,64.62
2018-10-18T11:55:07.029Z,64.72
2018-10-18T11:56:07.053Z,65.16
2018-10-18T11:57:06.992Z,65.12
2018-10-18T11:58:06.979Z,65.36
2018-10-18T12:00:20.363Z,65.12
2018-10-18T12:01:21.446Z,64.59
2018-10-18T12:02:21.375Z,64.59
2018-10-18T12:03:21.338Z,64.49
2018-10-18T12:04:21.335Z,64.79
2018-10-18T12:05:21.317Z,63.89
2018-10-18T12:06:21.316Z,63.59
2018-10-18T12:07:21.294Z,63.31
2018-10-18T12:08:21.255Z,64.62
2018-10-18T12:09:21.237Z,65.12
2018-10-18T12:10:21.260Z,64.95
2018-10-18T12:11:21.232Z,65.36
2018-10-18T12:12:21.297Z,65.99
2018-10-18T12:13:21.198Z,66.70
2018-10-18T12:14:21.181Z,66.42
2018-10-18T12:15:21.218Z,66.70
2018-10-18T12:16:21.186Z,66.53
2018-10-18T12:17:21.194Z,66.93
2018-10-18T12:18:21.139Z,67.16
2018-10-18T12:19:21.145Z,68.14
2018-10-18T12:20:21.131Z,67.87
2018-10-18T12:21:21.151Z,68.48
2018-10-18T12:22:21.106Z,68.17
2018-10-18T12:23:21.108Z,68.27
2018-10-18T12:24:21.106Z,68.48
2018-10-18T12:25:21.069Z,68.48
2018-10-18T12:26:21.091Z,67.67
2018-10-18T12:27:21.089Z,68.48
2018-10-18T12:28:21.103Z,68.37
2018-10-18T12:29:21.019Z,68.37
2018-10-18T12:30:21.015Z,68.14
2018-10-18T12:31:21.035Z,68.48
2018-10-18T12:32:21.000Z,68.44
2018-10-18T12:33:20.999Z,68.27
2018-10-18T12:34:20.993Z,68.37
2018-10-18T12:35:20.955Z,68.37
2018-10-18T12:36:20.956Z,68.48
2018-10-18T12:37:21.022Z,68.48
2018-10-18T12:38:20.935Z,68.85
2018-10-18T12:39:20.959Z,68.24
2018-10-18T12:40:20.973Z,66.42
2018-10-18T12:41:21.138Z,66.46
2018-10-18T12:42:20.897Z,66.36
2018-10-18T12:43:20.871Z,67.19
2018-10-18T12:44:20.872Z,67.70
2018-10-18T12:45:20.908Z,68.57
2018-10-18T12:46:20.837Z,68.41
2018-10-18T12:47:20.863Z,69.75
2018-10-18T12:48:21.059Z,69.35
2018-10-18T12:49:20.835Z,70.19
2018-10-18T12:50:20.793Z,72.31
2018-10-18T12:51:20.820Z,73.02
2018-10-18T12:52:20.802Z,72.64
2018-10-18T12:53:20.761Z,73.75
2018-10-18T12:54:20.839Z,74.80
2018-10-18T12:55:20.778Z,75.27
2018-10-18T12:56:20.726Z,75.78
2018-10-18T12:57:20.726Z,78.04
2018-10-18T12:58:20.726Z,78.99
2018-10-18T12:59:20.718Z,79.13
2018-10-18T13:00:20.689Z,79.22
2018-10-18T13:01:21.398Z,78.96
2018-10-18T13:02:20.755Z,80.18
2018-10-18T13:03:20.664Z,79.16
2018-10-18T13:04:20.682Z,78.96
2018-10-18T13:05:20.621Z,78.92
2018-10-18T13:06:20.617Z,78.21
2018-10-18T13:07:20.638Z,78.17
2018-10-18T13:08:20.593Z,78.48
2018-10-18T13:09:20.599Z,78.38
2018-10-18T13:10:20.573Z,77.87
2018-10-18T13:11:20.561Z,78.38
2018-10-18T13:12:20.730Z,78.28
2018-10-18T13:13:20.540Z,78.58
2018-10-18T13:14:20.533Z,79.19
2018-10-18T13:15:20.561Z,79.29
2018-10-18T13:16:20.513Z,79.08
2018-10-18T13:17:20.531Z,79.39
2018-10-18T13:18:20.479Z,79.79
2018-10-18T13:19:20.478Z,79.79
2018-10-18T13:20:20.489Z,80.00
2018-10-18T13:21:20.475Z,80.20
2018-10-18T13:22:20.474Z,80.71
2018-10-18T13:23:20.433Z,80.40
2018-10-18T13:24:20.417Z,80.91
2018-10-18T13:25:20.519Z,80.50
2018-10-18T13:26:20.402Z,80.30
2018-10-18T13:27:20.415Z,81.21
2018-10-18T13:28:20.400Z,80.60
2018-10-18T13:29:20.407Z,81.31
2018-10-18T13:30:20.405Z,82.02
2018-10-18T13:31:20.368Z,80.80
2018-10-18T13:32:20.348Z,80.30
2018-10-18T13:33:20.345Z,80.60
2018-10-18T13:34:20.327Z,81.01
2018-10-18T13:35:20.328Z,81.85
2018-10-18T13:36:20.290Z,81.45
2018-10-18T13:37:20.302Z,81.15
2018-10-18T13:38:20.272Z,81.45
2018-10-18T13:39:20.303Z,82.10
2018-10-18T13:40:20.251Z,81.96
2018-10-18T13:41:20.238Z,81.96
2018-10-18T13:42:20.244Z,81.25
2018-10-18T13:43:20.246Z,81.05
2018-10-18T13:44:20.189Z,81.25
2018-10-18T13:45:20.219Z,81.96
2018-10-18T13:46:20.217Z,81.96
2018-10-18T13:47:20.182Z,81.25
2018-10-18T13:48:20.194Z,81.35
2018-10-18T13:49:20.158Z,81.21
2018-10-18T13:50:20.276Z,81.41
2018-10-18T13:51:20.118Z,82.16
2018-10-18T13:52:20.924Z,81.96
2018-10-18T13:53:20.091Z,81.96
2018-10-18T13:54:20.083Z,82.06
2018-10-18T13:55:20.078Z,82.06
2018-10-18T13:56:20.052Z,82.20
2018-10-18T13:57:20.066Z,82.81
2018-10-18T13:58:20.049Z,82.67
2018-10-18T13:59:20.118Z,82.76
2018-10-18T14:01:30.862Z,82.42
2018-10-18T14:02:31.884Z,82.22
2018-10-18T14:03:31.844Z,81.71
2018-10-18T14:04:31.829Z,82.26
2018-10-18T14:05:31.843Z,82.16
2018-10-18T14:06:31.809Z,82.76
2018-10-18T14:07:31.816Z,82.87
2018-10-18T14:08:31.904Z,83.07
2018-10-18T14:09:31.776Z,82.76
2018-10-18T14:10:31.780Z,82.87
2018-10-18T14:11:31.759Z,82.87
2018-10-18T14:12:31.759Z,82.87
2018-10-18T14:13:31.752Z,83.27
2018-10-18T14:14:31.775Z,83.31
2018-10-18T14:15:31.722Z,83.37
2018-10-18T14:16:31.704Z,83.61
2018-10-18T14:17:31.860Z,83.98
2018-10-18T14:18:31.703Z,83.88
2018-10-18T14:19:31.705Z,83.68
2018-10-18T14:20:31.664Z,83.98
2018-10-18T14:21:31.687Z,83.47
2018-10-18T14:22:31.667Z,83.61
2018-10-18T14:23:31.678Z,83.58
2018-10-18T14:24:31.670Z,83.58
2018-10-18T14:25:31.639Z,83.47
2018-10-18T14:26:31.598Z,82.02
2018-10-18T14:27:31.594Z,82.12
2018-10-18T14:28:31.624Z,82.83
2018-10-18T14:29:31.621Z,82.76
2018-10-18T14:30:31.778Z,82.56
2018-10-18T14:31:31.550Z,82.46
2018-10-18T14:32:31.541Z,82.97
2018-10-18T14:33:31.516Z,82.76
2018-10-18T14:34:31.508Z,83.68
2018-10-18T14:35:31.491Z,83.58
2018-10-18T14:36:31.488Z,83.37
2018-10-18T14:37:31.489Z,83.37
2018-10-18T14:38:31.548Z,83.07
2018-10-18T14:39:31.458Z,83.07
2018-10-18T14:40:31.437Z,83.98
2018-10-18T14:41:31.432Z,83.78
2018-10-18T14:42:31.435Z,83.88
2018-10-18T14:43:31.441Z,83.98
2018-10-18T14:44:31.536Z,83.88
2018-10-18T14:45:31.403Z,84.33
2018-10-18T14:46:31.372Z,84.73
2018-10-18T14:47:31.414Z,84.73
2018-10-18T14:48:31.383Z,84.73
2018-10-18T14:49:31.343Z,84.73
2018-10-18T14:50:31.542Z,84.89
2018-10-18T14:51:31.364Z,84.69
2018-10-18T14:52:31.339Z,84.59
2018-10-18T14:53:31.306Z,84.02